Time;durP1;ratioP1;P1;durP2;ratioP2;P2;SDS_P1;SDS_P2;PMS_P1;PMS_P2;Temp;Humidity;BMP_temperature;BMP_pressure;BME280_temperature;BME280_humidity;BME280_pressure;Samples;Min_cycle;Max_cycle;Signal;HPM_P1;HPM_P2
2022/02/18 00:01:44;;;;;;;3.50;1.60;;;;;6.92;96201.40;;;;110611;1253;41138;-57
2022/02/18 00:04:13;;;;;;;3.50;1.40;;;;;6.90;96205.00;;;;110658;1251;41434;-57
2022/02/18 00:06:42;;;;;;;2.50;1.50;;;;;6.90;96214.60;;;;110591;1251;41626;-57
2022/02/18 00:09:12;;;;;;;2.30;1.40;;;;;6.90;96215.60;;;;110405;1251;41269;-59
2022/02/18 00:11:42;;;;;;;3.50;1.50;;;;;6.90;96218.40;;;;110433;1251;41151;-56
2022/02/18 00:14:12;;;;;;;3.20;1.50;;;;;6.90;96218.40;;;;110387;1253;41392;-58
2022/02/18 00:16:41;;;;;;;3.20;1.60;;;;;6.90;96223.60;;;;110494;1250;41676;-58
2022/02/18 00:19:10;;;;;;;2.00;1.40;;;;;6.84;96227.40;;;;110605;1253;41277;-58
2022/02/18 00:21:40;;;;;;;5.90;1.70;;;;;6.80;96233.40;;;;110803;1251;41166;-57
2022/02/18 00:24:10;;;;;;;3.20;1.50;;;;;6.80;96238.20;;;;110554;1253;41504;-57
2022/02/18 00:26:39;;;;;;;5.90;1.70;;;;;6.88;96244.60;;;;110565;1253;41630;-57
2022/02/18 00:29:10;;;;;;;5.30;1.70;;;;;6.82;96233.60;;;;110702;1250;42450;-58
2022/02/18 00:31:40;;;;;;;4.40;1.80;;;;;6.80;96246.60;;;;110561;1251;41732;-59
2022/02/18 00:34:11;;;;;;;4.20;1.60;;;;;6.80;96244.40;;;;110643;1251;41894;-60
2022/02/18 00:36:41;;;;;;;5.70;1.90;;;;;6.80;96247.00;;;;110625;1250;41186;-60
2022/02/18 00:39:12;;;;;;;4.60;1.70;;;;;6.80;96252.40;;;;110635;1252;41253;-60
2022/02/18 00:41:46;;;;;;;4.00;1.60;;;;;6.80;96258.00;;;;110742;1251;41255;-60
2022/02/18 00:44:19;;;;;;;4.20;1.60;;;;;6.82;96253.80;;;;110396;1253;41258;-61
2022/02/18 00:46:51;;;;;;;5.20;1.90;;;;;6.82;96255.00;;;;110628;1251;41250;-58
2022/02/18 00:49:21;;;;;;;5.90;2.00;;;;;6.88;96257.40;;;;110379;1253;41315;-59
2022/02/18 00:51:53;;;;;;;4.00;1.80;;;;;6.90;96260.40;;;;110655;1251;41253;-59
2022/02/18 00:54:23;;;;;;;5.70;2.10;;;;;6.84;96263.60;;;;110486;1253;41157;-58
2022/02/18 00:56:54;;;;;;;5.50;1.80;;;;;6.90;96280.20;;;;110607;1251;41559;-60
2022/02/18 00:59:24;;;;;;;2.90;1.50;;;;;6.88;96290.20;;;;110483;1252;41172;-57
2022/02/18 01:01:54;;;;;;;4.90;2.00;;;;;6.88;96299.40;;;;110856;1250;40744;-56
2022/02/18 01:04:24;;;;;;;4.30;1.50;;;;;6.86;96315.20;;;;110488;1253;41150;-58
2022/02/18 01:06:54;;;;;;;4.70;1.70;;;;;6.80;96324.40;;;;110636;1251;41179;-57
2022/02/18 01:09:25;;;;;;;4.90;1.70;;;;;6.66;96318.60;;;;110613;1253;41320;-57
2022/02/18 01:11:55;;;;;;;;;;;;;6.58;96333.00;;;;110560;1253;41151;-57
2022/02/18 01:14:26;;;;;;;3.50;1.60;;;;;6.60;96333.20;;;;110527;1251;41260;-57
2022/02/18 01:16:56;;;;;;;5.20;1.80;;;;;6.40;96329.40;;;;110555;1253;41191;-59
2022/02/18 01:19:26;;;;;;;4.20;1.60;;;;;6.20;96349.40;;;;110500;1253;42474;-59
2022/02/18 01:21:58;;;;;;;9.90;2.10;;;;;6.28;96359.40;;;;110546;1251;41280;-61
2022/02/18 01:24:29;;;;;;;5.70;1.60;;;;;6.20;96358.80;;;;110502;1250;41147;-57
2022/02/18 01:26:59;;;;;;;5.10;1.70;;;;;6.10;96376.60;;;;110754;1250;41144;-57
2022/02/18 01:29:38;;;;;;;3.80;1.60;;;;;5.96;96380.60;;;;110620;1250;41153;-58
2022/02/18 01:32:10;;;;;;;4.30;1.80;;;;;5.94;96394.40;;;;110711;1250;41835;-58
2022/02/18 01:34:40;;;;;;;7.50;2.10;;;;;6.00;96405.60;;;;110807;1250;41697;-59
2022/02/18 01:37:11;;;;;;;6.50;1.80;;;;;6.00;96417.60;;;;110515;1253;41600;-58
2022/02/18 01:39:41;;;;;;;4.50;1.80;;;;;6.00;96423.20;;;;110491;1253;41255;-58
2022/02/18 01:42:10;;;;;;;6.10;1.80;;;;;5.60;96422.40;;;;110531;1252;41470;-57
2022/02/18 01:44:45;;;;;;;3.40;1.60;;;;;5.70;96421.40;;;;110589;1251;41592;-59
2022/02/18 01:47:25;;;;;;;3.80;1.90;;;;;5.40;96415.80;;;;110741;1250;41250;-57
2022/02/18 01:49:58;;;;;;;6.60;1.90;;;;;5.30;96420.00;;;;110736;1250;41949;-55
2022/02/18 01:52:31;;;;;;;3.40;1.70;;;;;5.22;96417.40;;;;110772;1250;41271;-57
2022/02/18 01:55:10;;;;;;;5.50;1.70;;;;;4.84;96408.80;;;;110583;1253;41141;-57
2022/02/18 01:57:47;;;;;;;2.70;1.50;;;;;4.90;96419.40;;;;110563;1253;41620;-57
2022/02/18 02:00:20;;;;;;;2.90;1.70;;;;;4.72;96432.80;;;;110595;1251;41338;-57
2022/02/18 02:02:54;;;;;;;3.90;1.80;;;;;4.80;96427.40;;;;110493;1251;41155;-57
2022/02/18 02:05:24;;;;;;;4.40;2.00;;;;;4.62;96441.00;;;;110563;1253;42547;-57
2022/02/18 02:07:53;;;;;;;5.50;2.00;;;;;4.70;96453.00;;;;110695;1251;41830;-57
2022/02/18 02:10:23;;;;;;;3.80;1.70;;;;;4.70;96465.80;;;;110556;1251;41176;-57
2022/02/18 02:12:54;;;;;;;4.10;1.90;;;;;4.76;96468.80;;;;110572;1250;42247;-59
2022/02/18 02:15:31;;;;;;;6.40;2.00;;;;;4.80;96470.80;;;;110710;1250;41821;-59
2022/02/18 02:18:02;;;;;;;5.00;1.80;;;;;4.78;96491.40;;;;110591;1250;41188;-57
2022/02/18 02:20:32;;;;;;;4.90;1.80;;;;;4.90;96492.20;;;;110600;1250;41996;-59
2022/02/18 02:23:01;;;;;;;4.20;1.90;;;;;4.82;96490.60;;;;110816;1250;41963;-58
2022/02/18 02:25:35;;;;;;;7.00;1.80;;;;;4.88;96498.20;;;;110531;1251;41255;-57
2022/02/18 02:28:18;;;;;;;3.70;1.80;;;;;4.90;96502.00;;;;110494;1251;41273;-61
2022/02/18 02:30:48;;;;;;;4.00;1.80;;;;;4.72;96500.80;;;;110598;1252;41700;-57
2022/02/18 02:33:19;;;;;;;8.20;2.00;;;;;4.80;96508.00;;;;110366;1253;41232;-57
2022/02/18 02:35:49;;;;;;;4.00;1.70;;;;;4.60;96510.40;;;;110651;1251;41159;-59
2022/02/18 02:38:20;;;;;;;3.50;1.80;;;;;4.56;96511.20;;;;110740;1249;41373;-57
2022/02/18 02:40:51;;;;;;;5.90;1.70;;;;;4.66;96529.00;;;;110521;1253;41697;-55
2022/02/18 02:43:22;;;;;;;;;;;;;4.68;96527.20;;;;110286;1253;360810;-56
2022/02/18 02:45:54;;;;;;;3.30;1.70;;;;;4.50;96528.40;;;;110629;1250;41153;-57
2022/02/18 02:48:24;;;;;;;4.60;1.90;;;;;4.60;96532.40;;;;110732;1251;42445;-58
2022/02/18 02:50:58;;;;;;;4.90;2.10;;;;;4.60;96539.20;;;;110580;1252;41168;-59
2022/02/18 02:53:33;;;;;;;5.30;1.80;;;;;4.62;96545.40;;;;110579;1253;41152;-59
2022/02/18 02:56:05;;;;;;;7.60;1.90;;;;;4.60;96547.20;;;;110478;1253;41146;-58
2022/02/18 02:58:37;;;;;;;3.60;1.80;;;;;4.52;96554.00;;;;110523;1253;41142;-59
2022/02/18 03:01:07;;;;;;;4.40;1.80;;;;;4.50;96557.80;;;;110543;1253;41152;-59
2022/02/18 03:03:42;;;;;;;4.30;1.60;;;;;4.50;96565.80;;;;110681;1252;41939;-59
2022/02/18 03:06:12;;;;;;;3.60;1.60;;;;;4.50;96579.20;;;;110624;1250;41949;-57
2022/02/18 03:08:42;;;;;;;4.30;1.80;;;;;4.50;96586.40;;;;110526;1253;41263;-60
2022/02/18 03:11:29;;;;;;;4.60;1.80;;;;;4.44;96592.60;;;;110486;1253;42040;-59
2022/02/18 03:14:20;;;;;;;3.80;1.80;;;;;4.50;96602.80;;;;110407;1254;42107;-56
2022/02/18 03:17:02;;;;;;;3.60;1.80;;;;;4.40;96606.40;;;;110499;1253;41569;-58
2022/02/18 03:19:32;;;;;;;6.10;2.20;;;;;4.48;96613.80;;;;110517;1253;42423;-58
2022/02/18 03:22:06;;;;;;;5.60;2.00;;;;;4.40;96612.00;;;;110593;1253;41965;-57
2022/02/18 03:24:37;;;;;;;7.20;2.20;;;;;4.40;96612.80;;;;110633;1251;41953;-60
2022/02/18 03:27:08;;;;;;;4.40;1.80;;;;;4.48;96621.00;;;;110515;1253;41187;-58
2022/02/18 03:29:41;;;;;;;3.90;1.70;;;;;4.48;96624.80;;;;110471;1253;41253;-58
2022/02/18 03:32:18;;;;;;;6.00;1.80;;;;;4.38;96625.20;;;;110638;1251;41570;-59
2022/02/18 03:34:48;;;;;;;3.30;1.70;;;;;4.30;96623.20;;;;110524;1253;41146;-57
2022/02/18 03:37:23;;;;;;;5.00;1.70;;;;;4.30;96634.20;;;;110551;1251;41270;-57
2022/02/18 03:39:57;;;;;;;3.00;1.70;;;;;4.30;96632.40;;;;110640;1251;41251;-57
2022/02/18 03:42:26;;;;;;;3.00;1.60;;;;;4.38;96634.40;;;;110535;1253;41681;-60
2022/02/18 03:44:57;;;;;;;;;;;;;4.28;96635.80;;;;110579;1251;41808;-60
2022/02/18 03:47:27;;;;;;;2.10;1.40;;;;;4.10;96639.00;;;;110544;1251;41959;-56
2022/02/18 03:50:00;;;;;;;2.10;1.50;;;;;4.18;96638.00;;;;110519;1251;41212;-59
2022/02/18 03:52:30;;;;;;;2.80;1.40;;;;;4.10;96636.00;;;;110541;1253;41165;-57
2022/02/18 03:55:00;;;;;;;1.70;1.40;;;;;4.06;96648.40;;;;110416;1253;41175;-57
2022/02/18 03:57:30;;;;;;;1.50;1.30;;;;;4.00;96649.40;;;;110617;1251;41118;-58
2022/02/18 03:59:59;;;;;;;1.80;1.50;;;;;3.98;96635.40;;;;110565;1252;41193;-57
2022/02/18 04:02:30;;;;;;;1.60;1.40;;;;;3.90;96637.00;;;;110517;1252;41603;-57
2022/02/18 04:05:00;;;;;;;2.10;1.50;;;;;3.90;96633.00;;;;110413;1251;42264;-58
2022/02/18 04:07:45;;;;;;;1.60;1.40;;;;;4.00;96631.00;;;;110561;1251;41264;-57
2022/02/18 04:10:15;;;;;;;3.20;1.70;;;;;3.92;96624.60;;;;110505;1253;41905;-56
2022/02/18 04:12:44;;;;;;;1.70;1.40;;;;;3.88;96633.20;;;;110399;1253;41321;-58
2022/02/18 04:15:20;;;;;;;2.00;1.40;;;;;3.90;96634.40;;;;110410;1256;42077;-58
2022/02/18 04:17:50;;;;;;;3.60;1.70;;;;;3.90;96636.40;;;;110473;1252;41556;-58
2022/02/18 04:20:29;;;;;;;2.10;1.50;;;;;3.90;96639.40;;;;110584;1253;41337;-58
2022/02/18 04:23:32;;;;;;;1.40;1.30;;;;;3.90;96635.40;;;;110547;1251;41375;-58
2022/02/18 04:26:03;;;;;;;1.90;1.40;;;;;3.80;96642.40;;;;110656;1251;41731;-57
2022/02/18 04:28:34;;;;;;;2.80;1.50;;;;;3.80;96646.60;;;;110475;1253;41600;-58
2022/02/18 04:31:03;;;;;;;1.70;1.40;;;;;3.80;96647.40;;;;110457;1254;41169;-57
2022/02/18 04:33:33;;;;;;;1.80;1.40;;;;;3.80;96652.00;;;;110531;1253;41183;-59
2022/02/18 04:36:04;;;;;;;1.50;1.40;;;;;3.80;96648.20;;;;110636;1251;41157;-58
2022/02/18 04:38:33;;;;;;;3.20;1.60;;;;;3.78;96667.40;;;;110584;1251;41369;-58
2022/02/18 04:41:04;;;;;;;2.40;1.50;;;;;3.70;96671.20;;;;110534;1252;41389;-57
2022/02/18 04:43:34;;;;;;;2.00;1.50;;;;;3.70;96680.00;;;;110541;1252;41912;-60
2022/02/18 04:46:03;;;;;;;3.10;1.70;;;;;3.60;96683.20;;;;110566;1251;41177;-59
2022/02/18 04:48:33;;;;;;;3.40;1.60;;;;;3.60;96681.20;;;;110454;1253;41161;-57
2022/02/18 04:51:03;;;;;;;8.00;1.80;;;;;3.50;96687.40;;;;110648;1250;42126;-57
2022/02/18 04:53:38;;;;;;;6.50;2.10;;;;;3.46;96702.80;;;;110527;1252;42492;-57
2022/02/18 04:56:08;;;;;;;5.10;2.00;;;;;3.32;96720.00;;;;110735;1250;41153;-58
2022/02/18 04:58:38;;;;;;;5.80;2.20;;;;;3.30;96721.00;;;;110569;1251;41808;-57
2022/02/18 05:01:09;;;;;;;4.50;2.00;;;;;3.28;96724.00;;;;110780;1250;41594;-59
2022/02/18 05:03:39;;;;;;;6.00;1.80;;;;;3.20;96725.60;;;;110818;1251;41245;-58
2022/02/18 05:06:09;;;;;;;5.50;2.00;;;;;3.10;96737.40;;;;110623;1250;41245;-59
2022/02/18 05:08:39;;;;;;;6.90;2.20;;;;;3.00;96738.20;;;;110713;1250;41167;-59
2022/02/18 05:11:10;;;;;;;6.30;2.50;;;;;2.90;96735.40;;;;110676;1251;41168;-58
2022/02/18 05:13:39;;;;;;;10.20;2.40;;;;;2.90;96738.20;;;;110656;1251;41385;-58
2022/02/18 05:16:09;;;;;;;5.60;2.10;;;;;2.90;96749.40;;;;110517;1253;41262;-59
2022/02/18 05:18:39;;;;;;;4.40;2.00;;;;;2.90;96757.40;;;;110618;1253;41194;-59
2022/02/18 05:21:08;;;;;;;4.20;1.90;;;;;2.90;96758.80;;;;110539;1251;41161;-59
2022/02/18 05:23:38;;;;;;;3.80;1.90;;;;;2.90;96768.20;;;;110550;1251;41516;-57
2022/02/18 05:26:07;;;;;;;6.20;2.40;;;;;2.88;96776.80;;;;110564;1252;41694;-59
2022/02/18 05:28:37;;;;;;;8.80;2.50;;;;;2.78;96785.80;;;;110542;1253;41204;-58
2022/02/18 05:31:06;;;;;;;6.30;2.30;;;;;2.70;96794.40;;;;110640;1251;41397;-59
2022/02/18 05:33:35;;;;;;;5.80;2.30;;;;;2.70;96801.80;;;;110862;1250;42127;-57
2022/02/18 05:36:06;;;;;;;5.00;2.20;;;;;2.70;96812.60;;;;110657;1250;41250;-57
2022/02/18 05:38:41;;;;;;;5.50;2.30;;;;;2.62;96814.60;;;;110755;1250;41140;-57
2022/02/18 05:41:10;;;;;;;5.50;2.00;;;;;2.66;96820.00;;;;110774;1250;41154;-57
2022/02/18 05:43:40;;;;;;;6.90;2.40;;;;;2.66;96830.40;;;;110659;1250;41154;-57
2022/02/18 05:46:10;;;;;;;7.50;2.20;;;;;2.62;96842.80;;;;110569;1252;41202;-57
2022/02/18 05:48:39;;;;;;;9.60;2.60;;;;;2.62;96842.20;;;;110727;1250;41156;-58
2022/02/18 05:51:09;;;;;;;6.80;2.50;;;;;2.70;96844.80;;;;110823;1251;41145;-59
2022/02/18 05:53:39;;;;;;;5.90;2.40;;;;;2.70;96843.40;;;;110863;1250;41252;-60
2022/02/18 05:56:08;;;;;;;6.20;2.40;;;;;2.68;96846.00;;;;110566;1250;41196;-57
2022/02/18 05:58:38;;;;;;;6.20;2.30;;;;;2.60;96858.20;;;;110663;1251;41625;-58
2022/02/18 06:01:08;;;;;;;7.00;2.30;;;;;2.60;96861.00;;;;110768;1251;41215;-58
2022/02/18 06:03:37;;;;;;;5.60;2.30;;;;;2.70;96862.00;;;;110701;1250;41614;-58
2022/02/18 06:06:06;;;;;;;4.90;2.20;;;;;2.76;96861.20;;;;110817;1251;41159;-59
2022/02/18 06:08:36;;;;;;;8.90;2.70;;;;;2.80;96869.20;;;;110751;1250;41946;-58
2022/02/18 06:11:05;;;;;;;9.30;2.60;;;;;3.00;96870.40;;;;110615;1253;41270;-58
2022/02/18 06:13:34;;;;;;;6.00;2.50;;;;;3.18;96881.80;;;;110572;1253;41140;-58
2022/02/18 06:16:04;;;;;;;4.80;2.20;;;;;3.32;96887.40;;;;110391;1253;41275;-59
2022/02/18 06:18:33;;;;;;;5.70;2.10;;;;;3.40;96895.00;;;;110747;1250;41161;-56
2022/02/18 06:21:03;;;;;;;6.20;2.30;;;;;3.42;96894.00;;;;110693;1251;41161;-57
2022/02/18 06:23:32;;;;;;;5.10;2.10;;;;;3.50;96906.20;;;;110656;1253;41141;-59
2022/02/18 06:26:02;;;;;;;6.10;2.20;;;;;3.60;96912.60;;;;110654;1250;41612;-58
2022/02/18 06:28:31;;;;;;;7.50;2.10;;;;;3.70;96905.40;;;;110584;1250;41891;-58
2022/02/18 06:31:00;;;;;;;7.40;2.10;;;;;3.90;96909.40;;;;110570;1252;42466;-57
2022/02/18 06:33:30;;;;;;;7.70;2.40;;;;;4.06;96915.80;;;;110582;1251;41166;-59
2022/02/18 06:35:59;;;;;;;4.10;2.10;;;;;4.10;96915.00;;;;110597;1251;41171;-58
2022/02/18 06:38:28;;;;;;;5.70;2.20;;;;;4.20;96919.20;;;;110551;1253;41448;-59
2022/02/18 06:40:58;;;;;;;5.80;2.00;;;;;4.30;96926.20;;;;110324;1253;41290;-59
2022/02/18 06:43:28;;;;;;;4.30;1.90;;;;;4.30;96929.80;;;;110650;1251;41616;-59
2022/02/18 06:45:58;;;;;;;8.90;2.30;;;;;4.30;96929.20;;;;110575;1253;42019;-59
2022/02/18 06:48:27;;;;;;;4.50;1.80;;;;;4.30;96936.20;;;;110672;1250;41144;-60
2022/02/18 06:50:56;;;;;;;6.20;2.20;;;;;4.40;96934.20;;;;110503;1253;41161;-60
2022/02/18 06:53:27;;;;;;;6.90;2.40;;;;;4.40;96938.20;;;;110756;1250;41160;-59
2022/02/18 06:55:56;;;;;;;4.90;1.90;;;;;4.50;96933.40;;;;110561;1253;41987;-57
2022/02/18 06:58:25;;;;;;;6.50;2.30;;;;;4.50;96933.00;;;;110849;1251;41382;-57
2022/02/18 07:00:54;;;;;;;4.90;2.20;;;;;4.44;96928.60;;;;110576;1251;41934;-57
2022/02/18 07:03:24;;;;;;;5.40;2.30;;;;;4.40;96925.40;;;;110772;1252;41498;-58
2022/02/18 07:05:55;;;;;;;5.30;1.90;;;;;4.54;96923.60;;;;110570;1251;41594;-59
2022/02/18 07:08:24;;;;;;;5.80;2.10;;;;;4.90;96932.80;;;;110531;1253;41139;-59
2022/02/18 07:10:58;;;;;;;6.90;2.30;;;;;5.20;96938.60;;;;110618;1251;41639;-58
2022/02/18 07:13:27;;;;;;;4.70;2.10;;;;;5.56;96935.00;;;;110522;1252;41163;-58
2022/02/18 07:15:58;;;;;;;7.20;2.50;;;;;5.98;96939.60;;;;110546;1253;41388;-58
2022/02/18 07:18:27;;;;;;;4.50;2.10;;;;;6.30;96944.00;;;;110610;1253;41594;-59
2022/02/18 07:20:56;;;;;;;4.60;1.90;;;;;6.40;96939.00;;;;110679;1250;41375;-58
2022/02/18 07:23:25;;;;;;;8.10;2.60;;;;;6.56;96951.00;;;;110577;1250;41192;-57
2022/02/18 07:25:55;;;;;;;7.70;2.70;;;;;6.84;96951.00;;;;110592;1253;41148;-59
2022/02/18 07:28:24;;;;;;;7.40;2.60;;;;;7.10;96947.40;;;;110554;1253;42473;-58
2022/02/18 07:30:57;;;;;;;6.70;2.30;;;;;7.30;96936.20;;;;110692;1251;41161;-60
2022/02/18 07:33:26;;;;;;;4.30;1.80;;;;;6.90;96933.20;;;;110816;1251;41141;-60
2022/02/18 07:35:55;;;;;;;8.20;2.40;;;;;7.00;96938.20;;;;110551;1252;41628;-61
2022/02/18 07:38:25;;;;;;;6.30;2.20;;;;;7.06;96936.00;;;;110537;1253;41447;-56
2022/02/18 07:40:54;;;;;;;5.50;2.20;;;;;7.00;96940.60;;;;110662;1251;41385;-55
2022/02/18 07:43:25;;;;;;;5.10;2.10;;;;;6.82;96944.20;;;;110571;1252;41191;-56
2022/02/18 07:46:07;;;;;;;7.70;2.50;;;;;6.50;96949.60;;;;110623;1251;42400;-57
2022/02/18 07:48:37;;;;;;;7.20;2.10;;;;;6.60;96947.40;;;;110537;1254;41184;-57
2022/02/18 07:51:07;;;;;;;8.20;2.20;;;;;7.00;96949.80;;;;110506;1253;41918;-56
2022/02/18 07:53:36;;;;;;;5.20;2.20;;;;;6.96;96950.20;;;;110774;1251;42604;-57
2022/02/18 07:56:06;;;;;;;8.90;2.20;;;;;7.22;96952.40;;;;110703;1250;41252;-59
2022/02/18 07:58:35;;;;;;;3.90;1.90;;;;;7.14;96950.40;;;;110780;1250;42471;-59
2022/02/18 08:01:04;;;;;;;7.00;2.50;;;;;6.98;96946.40;;;;110811;1250;41673;-58
2022/02/18 08:03:34;;;;;;;5.30;2.00;;;;;7.12;96952.20;;;;110514;1253;42245;-57
2022/02/18 08:06:03;;;;;;;4.20;1.70;;;;;7.36;96949.20;;;;110721;1253;41974;-57
2022/02/18 08:08:34;;;;;;;6.00;2.10;;;;;7.82;96960.20;;;;110785;1250;42192;-56
2022/02/18 08:11:03;;;;;;;10.40;2.40;;;;;8.02;96965.20;;;;110582;1252;41163;-58
2022/02/18 08:13:33;;;;;;;6.90;2.00;;;;;8.22;96966.40;;;;110819;1250;41819;-57
2022/02/18 08:16:02;;;;;;;7.90;2.10;;;;;8.50;96968.60;;;;110670;1250;41148;-55
2022/02/18 08:18:37;;;;;;;3.90;1.80;;;;;8.90;96961.80;;;;110797;1250;41300;-56
2022/02/18 08:21:06;;;;;;;4.40;1.70;;;;;9.38;96966.60;;;;110796;1250;41455;-58
2022/02/18 08:23:39;;;;;;;6.20;1.90;;;;;9.82;96970.60;;;;110627;1251;41603;-58
2022/02/18 08:26:09;;;;;;;6.70;1.80;;;;;10.10;96968.20;;;;110549;1253;41148;-56
2022/02/18 08:28:38;;;;;;;7.60;1.90;;;;;10.30;96972.00;;;;110539;1253;41715;-59
2022/02/18 08:31:09;;;;;;;11.50;2.30;;;;;10.58;96972.00;;;;110724;1251;41136;-57
2022/02/18 08:33:38;;;;;;;8.60;2.20;;;;;10.88;96967.20;;;;110753;1250;41275;-59
2022/02/18 08:36:08;;;;;;;5.00;2.00;;;;;10.68;96976.20;;;;110757;1251;41600;-60
2022/02/18 08:38:38;;;;;;;5.90;1.90;;;;;10.34;96968.40;;;;110720;1252;41159;-58
2022/02/18 08:41:09;;;;;;;7.30;2.00;;;;;9.28;96980.80;;;;110658;1251;41283;-56
2022/02/18 08:43:38;;;;;;;7.10;2.00;;;;;9.76;96980.80;;;;110487;1250;41775;-55
2022/02/18 08:46:07;;;;;;;7.60;2.20;;;;;9.36;96978.40;;;;110733;1250;41690;-58
2022/02/18 08:48:37;;;;;;;4.90;1.90;;;;;9.80;96967.40;;;;110439;1253;42076;-59
2022/02/18 08:51:06;;;;;;;5.60;1.70;;;;;11.94;96953.80;;;;110752;1250;41901;-59
2022/02/18 08:53:36;;;;;;;8.50;2.10;;;;;14.62;96925.60;;;;110777;1250;41323;-58
2022/02/18 08:56:06;;;;;;;5.00;1.90;;;;;17.00;96921.20;;;;110427;1252;42001;-59
2022/02/18 08:58:35;;;;;;;6.90;1.80;;;;;19.90;96921.60;;;;110707;1250;41163;-58
2022/02/18 09:01:08;;;;;;;6.20;1.60;;;;;21.90;96913.00;;;;110551;1252;41190;-59
2022/02/18 09:03:38;;;;;;;5.30;1.70;;;;;24.16;96920.40;;;;110615;1251;41145;-59
2022/02/18 09:06:08;;;;;;;3.90;1.70;;;;;25.10;96910.00;;;;110716;1250;41605;-59
2022/02/18 09:08:38;;;;;;;;;;;;;26.86;96914.40;;;;110796;1250;41137;-60
2022/02/18 09:11:06;;;;;;;6.70;2.00;;;;;27.78;96909.20;;;;110592;1253;41139;-58
2022/02/18 09:13:36;;;;;;;4.20;1.60;;;;;27.86;96909.80;;;;110734;1251;41587;-60
2022/02/18 09:16:05;;;;;;;6.30;1.80;;;;;27.42;96912.20;;;;110831;1250;41150;-59
2022/02/18 09:18:55;;;;;;;5.60;1.60;;;;;25.62;96920.40;;;;110698;1253;41410;-59
2022/02/18 09:21:26;;;;;;;4.00;1.40;;;;;24.48;96940.80;;;;110862;1250;41138;-59
2022/02/18 09:23:59;;;;;;;4.40;1.70;;;;;24.20;96934.00;;;;110603;1251;41149;-58
2022/02/18 09:26:28;;;;;;;4.90;1.70;;;;;22.68;96937.20;;;;110652;1250;41150;-58
2022/02/18 09:29:01;;;;;;;5.60;1.80;;;;;19.92;96952.20;;;;110536;1253;41157;-58
2022/02/18 09:31:30;;;;;;;5.30;1.80;;;;;23.16;96956.40;;;;110372;1251;41276;-58
2022/02/18 09:33:59;;;;;;;4.10;1.50;;;;;23.82;96960.60;;;;110691;1251;42305;-58
2022/02/18 09:36:29;;;;;;;3.90;1.70;;;;;24.40;96976.40;;;;110682;1251;41158;-58
2022/02/18 09:38:59;;;;;;;5.60;2.10;;;;;21.82;96964.60;;;;110737;1251;41187;-59
2022/02/18 09:41:28;;;;;;;3.90;1.50;;;;;23.16;96989.00;;;;110374;1253;41210;-59
2022/02/18 09:44:00;;;;;;;5.60;1.60;;;;;22.62;96997.60;;;;110689;1251;41267;-59
2022/02/18 09:46:30;;;;;;;5.70;1.70;;;;;21.24;97002.00;;;;110716;1250;42524;-58
2022/02/18 09:48:59;;;;;;;4.40;1.60;;;;;18.54;97010.40;;;;110824;1250;41186;-59
2022/02/18 09:51:29;;;;;;;6.50;1.70;;;;;16.70;97016.60;;;;110620;1252;41915;-60
2022/02/18 09:53:58;;;;;;;6.80;1.90;;;;;15.28;97033.20;;;;110511;1253;41485;-59
2022/02/18 09:56:32;;;;;;;5.00;1.70;;;;;13.66;97043.00;;;;110733;1250;41616;-59
2022/02/18 09:59:05;;;;;;;5.70;1.80;;;;;13.26;97026.60;;;;110560;1251;41143;-57
2022/02/18 10:01:34;;;;;;;3.90;1.50;;;;;15.96;97013.20;;;;110727;1250;41155;-58
2022/02/18 10:04:04;;;;;;;5.40;1.60;;;;;18.98;97026.80;;;;110810;1250;41609;-57
2022/02/18 10:06:34;;;;;;;4.50;1.50;;;;;16.60;97032.40;;;;110835;1252;41260;-57
2022/02/18 10:09:03;;;;;;;4.60;1.50;;;;;18.04;97004.00;;;;110614;1252;41159;-57
2022/02/18 10:11:58;;;;;;;4.20;1.60;;;;;21.40;97020.80;;;;110628;1251;41203;-59
2022/02/18 10:14:57;;;;;;;5.60;1.40;;;;;22.04;96999.20;;;;110820;1250;41152;-56
2022/02/18 10:17:38;;;;;;;2.80;1.40;;;;;20.78;97021.80;;;;110718;1250;41139;-62
2022/02/18 10:20:22;;;;;;;5.10;1.80;;;;;21.40;97032.80;;;;110575;1253;41272;-58
2022/02/18 10:23:00;;;;;;;4.50;1.60;;;;;20.22;97014.20;;;;110782;1251;41159;-59
2022/02/18 10:25:31;;;;;;;5.50;1.70;;;;;23.86;97004.00;;;;110547;1253;41277;-60
2022/02/18 10:28:00;;;;;;;5.60;1.70;;;;;25.34;96990.00;;;;110619;1250;41153;-60
2022/02/18 10:30:31;;;;;;;3.10;1.40;;;;;22.74;96997.20;;;;110604;1252;41263;-59
2022/02/18 10:33:11;;;;;;;;;;;;;24.16;97006.20;;;;110565;1252;42495;-61
2022/02/18 10:35:40;;;;;;;3.60;1.50;;;;;26.50;96999.40;;;;110818;1250;41458;-60
2022/02/18 10:38:11;;;;;;;5.90;1.30;;;;;27.60;96984.00;;;;110765;1250;41150;-61
2022/02/18 10:40:42;;;;;;;3.70;1.30;;;;;29.56;96972.20;;;;110583;1252;41153;-58
2022/02/18 10:43:13;;;;;;;4.20;1.40;;;;;31.18;96987.80;;;;110761;1250;41153;-59
2022/02/18 10:46:02;;;;;;;4.10;1.50;;;;;31.32;97009.40;;;;110780;1250;41152;-59
2022/02/18 10:48:48;;;;;;;3.90;1.40;;;;;27.66;97019.20;;;;110567;1250;41171;-59
2022/02/18 10:51:30;;;;;;;3.30;1.40;;;;;23.52;97025.80;;;;110508;1253;41269;-59
2022/02/18 10:54:08;;;;;;;5.60;1.60;;;;;23.08;97031.00;;;;110577;1253;41146;-60
2022/02/18 10:56:38;;;;;;;5.40;1.30;;;;;19.98;97029.60;;;;110468;1253;41384;-59
2022/02/18 10:59:08;;;;;;;11.50;1.50;;;;;19.54;97032.40;;;;110547;1253;41909;-59
2022/02/18 11:01:44;;;;;;;2.80;1.30;;;;;17.56;97015.40;;;;110686;1252;41626;-60
2022/02/18 11:04:13;;;;;;;1.40;1.10;;;;;19.22;97047.40;;;;110494;1253;41150;-59
2022/02/18 11:06:42;;;;;;;5.50;1.50;;;;;18.84;97042.60;;;;110616;1253;41156;-58
2022/02/18 11:09:12;;;;;;;3.60;1.40;;;;;17.58;97042.40;;;;110535;1253;42371;-57
2022/02/18 11:11:46;;;;;;;3.80;1.50;;;;;17.26;97036.80;;;;110555;1253;41161;-59
2022/02/18 11:14:17;;;;;;;4.00;1.50;;;;;17.24;97040.80;;;;110575;1253;41466;-58
2022/02/18 11:16:55;;;;;;;3.80;1.50;;;;;19.36;97047.40;;;;110502;1253;41186;-58
2022/02/18 11:19:24;;;;;;;4.50;1.60;;;;;18.94;97056.20;;;;110575;1253;41405;-58
2022/02/18 11:22:13;;;;;;;3.90;1.80;;;;;19.36;97049.40;;;;110546;1253;41566;-58
2022/02/18 11:24:46;;;;;;;7.20;1.70;;;;;18.64;97059.40;;;;110508;1253;41765;-58
2022/02/18 11:27:15;;;;;;;4.90;1.40;;;;;17.92;97056.00;;;;110365;1254;41267;-58
2022/02/18 11:29:44;;;;;;;4.90;1.70;;;;;17.56;97070.80;;;;110653;1252;42456;-58
2022/02/18 11:32:27;;;;;;;3.90;1.70;;;;;16.00;97071.80;;;;110647;1252;41409;-59
2022/02/18 11:35:08;;;;;;;2.90;1.40;;;;;15.36;97072.00;;;;110500;1253;41302;-57
2022/02/18 11:37:54;;;;;;;5.60;1.70;;;;;15.46;97073.60;;;;110508;1253;41137;-59
2022/02/18 11:40:44;;;;;;;5.40;1.40;;;;;15.40;97090.60;;;;110576;1252;41270;-59
2022/02/18 11:43:25;;;;;;;6.80;1.90;;;;;14.62;97071.00;;;;110471;1253;41654;-59
2022/02/18 11:46:01;;;;;;;2.90;1.50;;;;;13.94;97085.20;;;;110503;1253;41156;-58
2022/02/18 11:48:39;;;;;;;5.10;1.60;;;;;15.10;97052.40;;;;110364;1254;42273;-57
2022/02/18 11:51:15;;;;;;;4.10;1.60;;;;;18.62;97039.20;;;;110572;1253;41638;-60
2022/02/18 11:53:51;;;;;;;6.30;1.50;;;;;22.04;97033.20;;;;110509;1253;41635;-59
2022/02/18 11:56:35;;;;;;;4.90;1.70;;;;;24.08;97036.20;;;;110754;1251;41252;-58
2022/02/18 11:59:05;;;;;;;5.40;1.60;;;;;24.52;97039.00;;;;110670;1253;42032;-58
2022/02/18 12:02:00;;;;;;;5.40;1.50;;;;;22.90;97056.40;;;;110657;1251;41540;-60
2022/02/18 12:04:31;;;;;;;3.50;1.40;;;;;21.74;97056.20;;;;110611;1251;41302;-59
2022/02/18 12:07:19;;;;;;;;;;;;;23.18;97055.80;;;;110618;1252;41593;-59
2022/02/18 12:09:48;;;;;;;5.10;1.70;;;;;21.42;97026.40;;;;110645;1252;41355;-60
2022/02/18 12:12:28;;;;;;;3.90;1.50;;;;;21.10;97051.00;;;;110674;1253;41152;-59
2022/02/18 12:15:07;;;;;;;4.60;1.40;;;;;20.52;97071.00;;;;110624;1251;41602;-57
2022/02/18 12:17:38;;;;;;;3.30;1.60;;;;;18.54;97056.40;;;;110654;1252;41897;-59
2022/02/18 12:20:15;;;;;;;;;;;;;21.92;97045.80;;;;110371;1253;41149;-60
2022/02/18 12:22:44;;;;;;;4.40;1.60;;;;;24.18;97044.40;;;;110477;1253;41150;-58
2022/02/18 12:25:27;;;;;;;3.40;1.40;;;;;25.92;97035.40;;;;110630;1250;41197;-60
2022/02/18 12:28:18;;;;;;;3.60;1.20;;;;;25.32;97057.20;;;;110790;1251;41177;-58
2022/02/18 12:30:57;;;;;;;5.60;1.60;;;;;25.42;97064.40;;;;110816;1250;41249;-58
2022/02/18 12:33:29;;;;;;;1.50;1.10;;;;;22.12;97076.20;;;;110708;1250;41266;-58
2022/02/18 12:35:58;;;;;;;3.10;1.20;;;;;19.66;97078.00;;;;110511;1253;41645;-67
2022/02/18 12:38:27;;;;;;;3.60;1.30;;;;;18.08;97089.00;;;;110540;1252;42655;-60
2022/02/18 12:40:56;;;;;;;4.00;1.90;;;;;17.16;97085.60;;;;110702;1252;41154;-61